PWSweather.com
Personal Weather Stations
Station Observations
KMACAMBR
Central Square, Cambridge, MA 02139

Central SquareCambridge, MA 02139

Lat: 42.36379, Lon: -71.107902

Elevation: 6

Station Type: Davis Vantage Pro2

https://weather-cambridge.keneli.org

Latest ConditionsUpdated 4:10:00 PM EST Sunday, Jan 19, 2020
Currently Today's Max Today's Min Today's Average
Temperature 39.3°F4.1°C 42.5°F5.8°C 22.6°F-5.2°C 30.5°F-0.8°C
Dew Point 24.9°F-3.9°C 32.1°F0.1°C 19.7°F-6.8°C 24.4°F-4.2°C
Winds 6.0 mph WNW9.7 kmh WNW 9.0 mph -14.5 kmh - - 3.0 mph 4.8 kmh
Wind Gusts 18.0 mph29.0 kmh 24.0 mph38.6 kmh - -
Humidity 56% 92% 54% 79%
Pressure 29.64 in1003.7 mb 29.74 in1007.1 mb 29.58 in1001.7 mb -
Precipitation - 0.20 in5.1 mm - -
Hour Temp Dew Point Humidity Winds Wind Gusts Pressure Precip Precip Rate Daily Precip Total
04:10 PM 39.3°F4.1°C 24.9°F-3.9°C 56% 6.0 mph WNW9.7 kmh WNW 18.0 mph29.0 kmh 29.64 in1003.7 mb 0.00 in0.0 mm 0.00 in0.0 mm 0.20 in5.1 mm
04:05 PM 39.3°F4.1°C 25.4°F-3.7°C 57% 5.0 mph WSW8.0 kmh WSW 16.0 mph25.7 kmh 29.64 in1003.7 mb 0.00 in0.0 mm 0.00 in0.0 mm 0.20 in5.1 mm
04:00 PM 39.4°F4.1°C 25.0°F-3.9°C 56% 6.0 mph W9.7 kmh W 17.0 mph27.4 kmh 29.64 in1003.7 mb 0.00 in0.0 mm 0.00 in0.0 mm 0.20 in5.1 mm
03:55 PM 39.5°F4.2°C 25.1°F-3.8°C 56% 6.0 mph WSW9.7 kmh WSW 13.0 mph20.9 kmh 29.64 in1003.7 mb 0.01 in0.3 mm 0.00 in0.0 mm 0.20 in5.1 mm
03:50 PM 39.7°F4.3°C 24.9°F-3.9°C 55% 6.0 mph WNW9.7 kmh WNW 18.0 mph29.0 kmh 29.64 in1003.7 mb 0.01 in0.3 mm 0.00 in0.0 mm 0.20 in5.1 mm
03:45 PM 39.8°F4.3°C 25.0°F-3.9°C 55% 8.0 mph W12.9 kmh W 21.0 mph33.8 kmh 29.64 in1003.7 mb 0.01 in0.3 mm 0.00 in0.0 mm 0.20 in5.1 mm
03:40 PM 40.0°F4.4°C 25.2°F-3.8°C 55% 7.0 mph WNW11.3 kmh WNW 14.0 mph22.5 kmh 29.64 in1003.7 mb 0.01 in0.3 mm 0.00 in0.0 mm 0.20 in5.1 mm
03:35 PM 40.3°F4.6°C 25.4°F-3.7°C 55% 5.0 mph W8.0 kmh W 15.0 mph24.1 kmh 29.64 in1003.7 mb 0.01 in0.3 mm 0.00 in0.0 mm 0.20 in5.1 mm
03:30 PM 40.7°F4.8°C 25.4°F-3.7°C 54% 9.0 mph WSW14.5 kmh WSW 18.0 mph29.0 kmh 29.63 in1003.4 mb 0.01 in0.3 mm 0.00 in0.0 mm 0.20 in5.1 mm
03:25 PM 41.1°F5.1°C 25.7°F-3.5°C 54% 5.0 mph W8.0 kmh W 12.0 mph19.3 kmh 29.63 in1003.4 mb 0.01 in0.3 mm 0.00 in0.0 mm 0.20 in5.1 mm
03:20 PM 40.9°F4.9°C 26.4°F-3.1°C 56% 6.0 mph W9.7 kmh W 15.0 mph24.1 kmh 29.63 in1003.4 mb 0.02 in0.5 mm 0.00 in0.0 mm 0.20 in5.1 mm
03:15 PM 40.6°F4.8°C 26.1°F-3.3°C 56% 7.0 mph W11.3 kmh W 19.0 mph30.6 kmh 29.63 in1003.4 mb 0.02 in0.5 mm 0.00 in0.0 mm 0.20 in5.1 mm
03:10 PM 40.4°F4.7°C 26.0°F-3.3°C 56% 6.0 mph WSW9.7 kmh WSW 18.0 mph29.0 kmh 29.62 in1003.0 mb 0.02 in0.5 mm 0.00 in0.0 mm 0.20 in5.1 mm
03:05 PM 40.5°F4.7°C 26.9°F-2.8°C 58% 4.0 mph WSW6.4 kmh WSW 12.0 mph19.3 kmh 29.62 in1003.0 mb 0.02 in0.5 mm 0.00 in0.0 mm 0.20 in5.1 mm
03:00 PM 40.6°F4.8°C 26.6°F-3.0°C 57% 5.0 mph WSW8.0 kmh WSW 12.0 mph19.3 kmh 29.62 in1003.0 mb 0.02 in0.5 mm 0.01 in0.3 mm 0.20 in5.1 mm
02:55 PM 40.6°F4.8°C 26.1°F-3.3°C 56% 4.0 mph W6.4 kmh W 15.0 mph24.1 kmh 29.62 in1003.0 mb 0.01 in0.3 mm 0.00 in0.0 mm 0.19 in4.8 mm
02:50 PM 40.7°F4.8°C 26.2°F-3.2°C 56% 6.0 mph W9.7 kmh W 15.0 mph24.1 kmh 29.61 in1002.7 mb 0.01 in0.3 mm 0.00 in0.0 mm 0.19 in4.8 mm
02:45 PM 40.8°F4.9°C 25.9°F-3.4°C 55% 9.0 mph W14.5 kmh W 22.0 mph35.4 kmh 29.61 in1002.7 mb 0.01 in0.3 mm 0.00 in0.0 mm 0.19 in4.8 mm
02:40 PM 41.0°F5.0°C 26.9°F-2.8°C 57% 6.0 mph WSW9.7 kmh WSW 11.0 mph17.7 kmh 29.61 in1002.7 mb 0.02 in0.5 mm 0.00 in0.0 mm 0.19 in4.8 mm
02:35 PM 41.3°F5.2°C 26.8°F-2.9°C 56% 6.0 mph W9.7 kmh W 14.0 mph22.5 kmh 29.61 in1002.7 mb 0.02 in0.5 mm 0.00 in0.0 mm 0.19 in4.8 mm
02:30 PM 41.5°F5.3°C 27.0°F-2.8°C 56% 4.0 mph WNW6.4 kmh WNW 11.0 mph17.7 kmh 29.60 in1002.4 mb 0.02 in0.5 mm 0.00 in0.0 mm 0.19 in4.8 mm
02:25 PM 41.6°F5.3°C 26.6°F-3.0°C 55% 6.0 mph WNW9.7 kmh WNW 14.0 mph22.5 kmh 29.61 in1002.7 mb 0.03 in0.8 mm 0.12 in3.0 mm 0.19 in4.8 mm
02:20 PM 41.8°F5.4°C 26.8°F-2.9°C 55% 8.0 mph WNW12.9 kmh WNW 19.0 mph30.6 kmh 29.60 in1002.4 mb 0.02 in0.5 mm 0.00 in0.0 mm 0.18 in4.6 mm
02:15 PM 41.6°F5.3°C 27.1°F-2.7°C 56% 7.0 mph WNW11.3 kmh WNW 13.0 mph20.9 kmh 29.60 in1002.4 mb 0.03 in0.8 mm 0.00 in0.0 mm 0.18 in4.6 mm
02:10 PM 41.2°F5.1°C 26.7°F-2.9°C 56% 5.0 mph W8.0 kmh W 12.0 mph19.3 kmh 29.59 in1002.0 mb 0.03 in0.8 mm 0.00 in0.0 mm 0.18 in4.6 mm
02:05 PM 40.9°F4.9°C 26.4°F-3.1°C 56% 6.0 mph WNW9.7 kmh WNW 13.0 mph20.9 kmh 29.59 in1002.0 mb 0.04 in1.0 mm 0.00 in0.0 mm 0.18 in4.6 mm
02:00 PM 40.9°F4.9°C 26.4°F-3.1°C 56% 7.0 mph WNW11.3 kmh WNW 16.0 mph25.7 kmh 29.59 in1002.0 mb 0.04 in1.0 mm 0.00 in0.0 mm 0.18 in4.6 mm
01:55 PM 41.1°F5.1°C 26.6°F-3.0°C 56% 8.0 mph W12.9 kmh W 15.0 mph24.1 kmh 29.59 in1002.0 mb 0.04 in1.0 mm 0.00 in0.0 mm 0.18 in4.6 mm
01:50 PM 41.1°F5.1°C 26.6°F-3.0°C 56% 8.0 mph WNW12.9 kmh WNW 18.0 mph29.0 kmh 29.59 in1002.0 mb 0.05 in1.3 mm 0.00 in0.0 mm 0.18 in4.6 mm
01:45 PM 41.3°F5.2°C 26.4°F-3.1°C 55% 9.0 mph W14.5 kmh W 23.0 mph37.0 kmh 29.59 in1002.0 mb 0.05 in1.3 mm 0.00 in0.0 mm 0.18 in4.6 mm
01:40 PM 41.5°F5.3°C 26.6°F-3.0°C 55% 9.0 mph WNW14.5 kmh WNW 24.0 mph38.6 kmh 29.59 in1002.0 mb 0.05 in1.3 mm 0.00 in0.0 mm 0.17 in4.3 mm
01:35 PM 41.8°F5.4°C 26.8°F-2.9°C 55% 7.0 mph W11.3 kmh W 17.0 mph27.4 kmh 29.59 in1002.0 mb 0.05 in1.3 mm 0.00 in0.0 mm 0.17 in4.3 mm
01:30 PM 42.2°F5.7°C 27.2°F-2.7°C 55% 9.0 mph WSW14.5 kmh WSW 19.0 mph30.6 kmh 29.59 in1002.0 mb 0.06 in1.5 mm 0.00 in0.0 mm 0.17 in4.3 mm
01:25 PM 42.2°F5.7°C 27.2°F-2.7°C 55% 8.0 mph W12.9 kmh W 19.0 mph30.6 kmh 29.59 in1002.0 mb 0.06 in1.5 mm 0.00 in0.0 mm 0.16 in4.1 mm
01:20 PM 42.5°F5.8°C 27.5°F-2.5°C 55% 6.0 mph WSW9.7 kmh WSW 14.0 mph22.5 kmh 29.58 in1001.7 mb 0.06 in1.5 mm 0.12 in3.0 mm 0.16 in4.1 mm
01:15 PM 42.3°F5.7°C 27.7°F-2.4°C 56% 8.0 mph WSW12.9 kmh WSW 16.0 mph25.7 kmh 29.58 in1001.7 mb 0.05 in1.3 mm 0.00 in0.0 mm 0.15 in3.8 mm
01:10 PM 42.4°F5.8°C 27.4°F-2.6°C 55% 7.0 mph WSW11.3 kmh WSW 18.0 mph29.0 kmh 29.58 in1001.7 mb 0.06 in1.5 mm 0.00 in0.0 mm 0.15 in3.8 mm
01:05 PM 42.3°F5.7°C 28.2°F-2.1°C 57% 6.0 mph WNW9.7 kmh WNW 14.0 mph22.5 kmh 29.59 in1002.0 mb 0.06 in1.5 mm 0.00 in0.0 mm 0.14 in3.6 mm
01:00 PM 42.1°F5.6°C 28.4°F-2.0°C 58% 8.0 mph WNW12.9 kmh WNW 19.0 mph30.6 kmh 29.59 in1002.0 mb 0.06 in1.5 mm 0.00 in0.0 mm 0.14 in3.6 mm
12:55 PM 42.0°F5.6°C 27.9°F-2.3°C 57% 8.0 mph WSW12.9 kmh WSW 20.0 mph32.2 kmh 29.59 in1002.0 mb 0.06 in1.5 mm 0.00 in0.0 mm 0.14 in3.6 mm
12:50 PM 42.1°F5.6°C 28.4°F-2.0°C 58% 6.0 mph WSW9.7 kmh WSW 13.0 mph20.9 kmh 29.59 in1002.0 mb 0.06 in1.5 mm 0.00 in0.0 mm 0.13 in3.3 mm
12:45 PM 42.0°F5.6°C 28.3°F-2.1°C 58% 7.0 mph WSW11.3 kmh WSW 17.0 mph27.4 kmh 29.58 in1001.7 mb 0.07 in1.8 mm 0.00 in0.0 mm 0.13 in3.3 mm
12:40 PM 42.0°F5.6°C 29.1°F-1.6°C 60% 6.0 mph WSW9.7 kmh WSW 14.0 mph22.5 kmh 29.58 in1001.7 mb 0.07 in1.8 mm 0.00 in0.0 mm 0.12 in3.0 mm
12:35 PM 42.0°F5.6°C 29.9°F-1.2°C 62% 5.0 mph WSW8.0 kmh WSW 11.0 mph17.7 kmh 29.58 in1001.7 mb 0.08 in2.0 mm 0.12 in3.0 mm 0.12 in3.0 mm
12:30 PM 41.7°F5.4°C 29.7°F-1.3°C 62% 5.0 mph W8.0 kmh W 13.0 mph20.9 kmh 29.58 in1001.7 mb 0.07 in1.8 mm 0.12 in3.0 mm 0.11 in2.8 mm
12:25 PM 41.7°F5.4°C 30.0°F-1.1°C 63% 4.0 mph WNW6.4 kmh WNW 10.0 mph16.1 kmh 29.58 in1001.7 mb 0.06 in1.5 mm 0.00 in0.0 mm 0.10 in2.5 mm
12:20 PM 41.4°F5.2°C 29.8°F-1.2°C 63% 7.0 mph WSW11.3 kmh WSW 18.0 mph29.0 kmh 29.58 in1001.7 mb 0.07 in1.8 mm 0.00 in0.0 mm 0.10 in2.5 mm
12:15 PM 41.5°F5.3°C 29.9°F-1.2°C 63% 4.0 mph W6.4 kmh W 9.0 mph14.5 kmh 29.58 in1001.7 mb 0.07 in1.8 mm 0.00 in0.0 mm 0.10 in2.5 mm
12:10 PM 41.1°F5.1°C 29.9°F-1.2°C 64% 6.0 mph W9.7 kmh W 13.0 mph20.9 kmh 29.59 in1002.0 mb 0.07 in1.8 mm 0.12 in3.0 mm 0.09 in2.3 mm
12:05 PM 40.9°F4.9°C 30.4°F-0.9°C 66% 6.0 mph W9.7 kmh W 15.0 mph24.1 kmh 29.58 in1001.7 mb 0.06 in1.5 mm 0.00 in0.0 mm 0.08 in2.0 mm
12:00 PM 40.8°F4.9°C 30.3°F-0.9°C 66% 7.0 mph WSW11.3 kmh WSW 18.0 mph29.0 kmh 29.58 in1001.7 mb 0.07 in1.8 mm 0.00 in0.0 mm 0.08 in2.0 mm
11:55 AM 40.7°F4.8°C 30.6°F-0.8°C 67% 8.0 mph WSW12.9 kmh WSW 17.0 mph27.4 kmh 29.58 in1001.7 mb 0.07 in1.8 mm 0.00 in0.0 mm 0.08 in2.0 mm
11:50 AM 40.6°F4.8°C 30.5°F-0.8°C 67% 6.0 mph WSW9.7 kmh WSW 13.0 mph20.9 kmh 29.58 in1001.7 mb 0.07 in1.8 mm 0.12 in3.0 mm 0.07 in1.8 mm
11:45 AM 40.2°F4.6°C 31.6°F-0.2°C 71% 5.0 mph W8.0 kmh W 12.0 mph19.3 kmh 29.58 in1001.7 mb 0.06 in1.5 mm 0.12 in3.0 mm 0.06 in1.5 mm
11:40 AM 40.4°F4.7°C 31.8°F-0.1°C 71% 4.0 mph WSW6.4 kmh WSW 10.0 mph16.1 kmh 29.59 in1002.0 mb 0.05 in1.3 mm 0.12 in3.0 mm 0.05 in1.3 mm
11:35 AM 40.1°F4.5°C 31.5°F-0.3°C 71% 5.0 mph W8.0 kmh W 10.0 mph16.1 kmh 29.59 in1002.0 mb 0.04 in1.0 mm 0.00 in0.0 mm 0.04 in1.0 mm
11:30 AM 39.9°F4.4°C 31.3°F-0.4°C 71% 5.0 mph W8.0 kmh W 11.0 mph17.7 kmh 29.59 in1002.0 mb 0.04 in1.0 mm 0.00 in0.0 mm 0.04 in1.0 mm
11:25 AM 39.7°F4.3°C 31.4°F-0.3°C 72% 6.0 mph WSW9.7 kmh WSW 17.0 mph27.4 kmh 29.59 in1002.0 mb 0.04 in1.0 mm 0.12 in3.0 mm 0.04 in1.0 mm
11:20 AM 39.5°F4.2°C 31.6°F-0.2°C 73% 5.0 mph WSW8.0 kmh WSW 13.0 mph20.9 kmh 29.59 in1002.0 mb 0.03 in0.8 mm 0.00 in0.0 mm 0.03 in0.8 mm
11:15 AM 39.0°F3.9°C 32.1°F0.1°C 76% 4.0 mph WSW6.4 kmh WSW 8.0 mph12.9 kmh 29.59 in1002.0 mb 0.03 in0.8 mm 0.12 in3.0 mm 0.03 in0.8 mm
11:10 AM 38.7°F3.7°C 31.8°F-0.1°C 76% 5.0 mph SW8.0 kmh SW 11.0 mph17.7 kmh 29.59 in1002.0 mb 0.02 in0.5 mm 0.00 in0.0 mm 0.02 in0.5 mm
11:05 AM 38.2°F3.4°C 31.6°F-0.2°C 77% 5.0 mph WSW8.0 kmh WSW 15.0 mph24.1 kmh 29.59 in1002.0 mb 0.02 in0.5 mm 0.12 in3.0 mm 0.02 in0.5 mm
11:00 AM 37.7°F3.2°C 32.1°F0.1°C 80% 3.0 mph WNW4.8 kmh WNW 8.0 mph12.9 kmh 29.59 in1002.0 mb 0.01 in0.3 mm 0.00 in0.0 mm 0.01 in0.3 mm
10:55 AM 37.1°F2.8°C 31.5°F-0.3°C 80% 4.0 mph W6.4 kmh W 9.0 mph14.5 kmh 29.59 in1002.0 mb 0.01 in0.3 mm 0.12 in3.0 mm 0.01 in0.3 mm
10:50 AM 36.7°F2.6°C 31.4°F-0.3°C 81% 2.0 mph WSW3.2 kmh WSW 7.0 mph11.3 kmh 29.58 in1001.7 mb 0.00 in0.0 mm 0.00 in0.0 mm 0.00 in0.0 mm
10:45 AM 36.2°F2.3°C 31.5°F-0.3°C 83% 3.0 mph WSW4.8 kmh WSW 7.0 mph11.3 kmh 29.59 in1002.0 mb 0.00 in0.0 mm 0.00 in0.0 mm 0.00 in0.0 mm
10:40 AM 35.5°F1.9°C 31.2°F-0.4°C 84% 4.0 mph SW6.4 kmh SW 9.0 mph14.5 kmh 29.59 in1002.0 mb 0.00 in0.0 mm 0.00 in0.0 mm 0.00 in0.0 mm
10:35 AM 35.0°F1.7°C 31.2°F-0.4°C 86% 3.0 mph WSW4.8 kmh WSW 9.0 mph14.5 kmh 29.59 in1002.0 mb 0.00 in0.0 mm 0.00 in0.0 mm 0.00 in0.0 mm
10:30 AM 34.4°F1.3°C 31.2°F-0.4°C 88% 4.0 mph SW6.4 kmh SW 9.0 mph14.5 kmh 29.59 in1002.0 mb 0.00 in0.0 mm 0.00 in0.0 mm 0.00 in0.0 mm
10:25 AM 33.9°F1.1°C 31.3°F-0.4°C 90% 3.0 mph WSW4.8 kmh WSW 5.0 mph8.0 kmh 29.59 in1002.0 mb 0.00 in0.0 mm 0.00 in0.0 mm 0.00 in0.0 mm
10:20 AM 33.5°F0.8°C 31.2°F-0.4°C 91% 4.0 mph WSW6.4 kmh WSW 7.0 mph11.3 kmh 29.59 in1002.0 mb 0.00 in0.0 mm 0.00 in0.0 mm 0.00 in0.0 mm
10:15 AM 33.1°F0.6°C 30.8°F-0.7°C 91% 3.0 mph SW4.8 kmh SW 7.0 mph11.3 kmh 29.59 in1002.0 mb 0.00 in0.0 mm 0.00 in0.0 mm 0.00 in0.0 mm
10:10 AM 32.7°F0.4°C 30.4°F-0.9°C 91% 4.0 mph WSW6.4 kmh WSW 8.0 mph12.9 kmh 29.60 in1002.4 mb 0.00 in0.0 mm 0.00 in0.0 mm 0.00 in0.0 mm
10:05 AM 32.3°F0.2°C 30.0°F-1.1°C 91% 4.0 mph SW6.4 kmh SW 9.0 mph14.5 kmh 29.60 in1002.4 mb 0.00 in0.0 mm 0.00 in0.0 mm 0.00 in0.0 mm
10:00 AM 31.9°F-0.1°C 29.6°F-1.3°C 91% 4.0 mph WSW6.4 kmh WSW 8.0 mph12.9 kmh 29.60 in1002.4 mb 0.00 in0.0 mm 0.00 in0.0 mm 0.00 in0.0 mm
09:55 AM 31.0°F-0.6°C 29.0°F-1.7°C 92% 4.0 mph WSW6.4 kmh WSW 8.0 mph12.9 kmh 29.60 in1002.4 mb 0.00 in0.0 mm 0.00 in0.0 mm 0.00 in0.0 mm
09:50 AM 30.7°F-0.7°C 28.7°F-1.8°C 92% 3.0 mph WSW4.8 kmh WSW 9.0 mph14.5 kmh 29.59 in1002.0 mb 0.00 in0.0 mm 0.00 in0.0 mm 0.00 in0.0 mm
09:45 AM 29.9°F-1.2°C 27.6°F-2.4°C 91% 3.0 mph WSW4.8 kmh WSW 9.0 mph14.5 kmh 29.59 in1002.0 mb 0.00 in0.0 mm 0.00 in0.0 mm 0.00 in0.0 mm
09:40 AM 29.2°F-1.6°C 26.9°F-2.8°C 91% 3.0 mph SW4.8 kmh SW 5.0 mph8.0 kmh 29.59 in1002.0 mb 0.00 in0.0 mm 0.00 in0.0 mm 0.00 in0.0 mm
09:35 AM 28.4°F-2.0°C 26.1°F-3.3°C 91% 3.0 mph SW4.8 kmh SW 6.0 mph9.7 kmh 29.59 in1002.0 mb 0.00 in0.0 mm 0.00 in0.0 mm 0.00 in0.0 mm
09:30 AM 27.4°F-2.6°C 25.1°F-3.8°C 91% 3.0 mph SW4.8 kmh SW 8.0 mph12.9 kmh 29.59 in1002.0 mb 0.00 in0.0 mm 0.00 in0.0 mm 0.00 in0.0 mm
09:25 AM 26.9°F-2.8°C 24.4°F-4.2°C 90% Calm Calm 3.0 mph4.8 kmh 29.59 in1002.0 mb 0.00 in0.0 mm 0.00 in0.0 mm 0.00 in0.0 mm
09:20 AM 26.5°F-3.1°C 24.0°F-4.4°C 90% 1.0 mph SW1.6 kmh SW 3.0 mph4.8 kmh 29.59 in1002.0 mb 0.00 in0.0 mm 0.00 in0.0 mm 0.00 in0.0 mm
09:15 AM 26.2°F-3.2°C 23.7°F-4.6°C 90% 1.0 mph WSW1.6 kmh WSW 5.0 mph8.0 kmh 29.59 in1002.0 mb 0.00 in0.0 mm 0.00 in0.0 mm 0.00 in0.0 mm
09:10 AM 26.0°F-3.3°C 23.5°F-4.7°C 90% 1.0 mph WSW1.6 kmh WSW 2.0 mph3.2 kmh 29.59 in1002.0 mb 0.00 in0.0 mm 0.00 in0.0 mm 0.00 in0.0 mm
09:05 AM 25.9°F-3.4°C 23.4°F-4.8°C 90% 1.0 mph WSW1.6 kmh WSW 3.0 mph4.8 kmh 29.59 in1002.0 mb 0.00 in0.0 mm 0.00 in0.0 mm 0.00 in0.0 mm
09:00 AM 25.6°F-3.6°C 23.1°F-4.9°C 90% 2.0 mph WSW3.2 kmh WSW 5.0 mph8.0 kmh 29.59 in1002.0 mb 0.00 in0.0 mm 0.00 in0.0 mm 0.00 in0.0 mm
08:55 AM 25.1°F-3.8°C 22.6°F-5.2°C 90% 2.0 mph WSW3.2 kmh WSW 3.0 mph4.8 kmh 29.59 in1002.0 mb 0.00 in0.0 mm 0.00 in0.0 mm 0.00 in0.0 mm
08:50 AM 24.7°F-4.1°C 22.2°F-5.4°C 90% 1.0 mph SW1.6 kmh SW 3.0 mph4.8 kmh 29.59 in1002.0 mb 0.00 in0.0 mm 0.00 in0.0 mm 0.00 in0.0 mm
08:45 AM 24.4°F-4.2°C 21.9°F-5.6°C 90% 1.0 mph SW1.6 kmh SW 3.0 mph4.8 kmh 29.59 in1002.0 mb 0.00 in0.0 mm 0.00 in0.0 mm 0.00 in0.0 mm
08:40 AM 24.1°F-4.4°C 21.6°F-5.8°C 90% 1.0 mph SW1.6 kmh SW 3.0 mph4.8 kmh 29.59 in1002.0 mb 0.00 in0.0 mm 0.00 in0.0 mm 0.00 in0.0 mm
08:35 AM 23.8°F-4.6°C 21.3°F-5.9°C 90% 1.0 mph SW1.6 kmh SW 3.0 mph4.8 kmh 29.59 in1002.0 mb 0.00 in0.0 mm 0.00 in0.0 mm 0.00 in0.0 mm
08:30 AM 23.6°F-4.7°C 20.8°F-6.2°C 89% 1.0 mph SW1.6 kmh SW 3.0 mph4.8 kmh 29.59 in1002.0 mb 0.00 in0.0 mm 0.00 in0.0 mm 0.00 in0.0 mm
08:25 AM 23.4°F-4.8°C 20.9°F-6.2°C 90% 1.0 mph SW1.6 kmh SW 3.0 mph4.8 kmh 29.59 in1002.0 mb 0.00 in0.0 mm 0.00 in0.0 mm 0.00 in0.0 mm
08:20 AM 23.2°F-4.9°C 20.4°F-6.4°C 89% 1.0 mph SW1.6 kmh SW 3.0 mph4.8 kmh 29.59 in1002.0 mb 0.00 in0.0 mm 0.00 in0.0 mm 0.00 in0.0 mm
08:15 AM 23.1°F-4.9°C 20.3°F-6.5°C 89% 1.0 mph SW1.6 kmh SW 3.0 mph4.8 kmh 29.59 in1002.0 mb 0.00 in0.0 mm 0.00 in0.0 mm 0.00 in0.0 mm
08:10 AM 22.9°F-5.1°C 20.2°F-6.6°C 89% 1.0 mph SW1.6 kmh SW 3.0 mph4.8 kmh 29.59 in1002.0 mb 0.00 in0.0 mm 0.00 in0.0 mm 0.00 in0.0 mm
08:05 AM 22.9°F-5.1°C 20.2°F-6.6°C 89% Calm Calm -- 29.60 in1002.4 mb 0.00 in0.0 mm 0.00 in0.0 mm 0.00 in0.0 mm
08:00 AM 22.9°F-5.1°C 20.2°F-6.6°C 89% Calm Calm -- 29.60 in1002.4 mb 0.00 in0.0 mm 0.00 in0.0 mm 0.00 in0.0 mm
07:55 AM 22.9°F-5.1°C 20.2°F-6.6°C 89% Calm Calm 1.0 mph1.6 kmh 29.60 in1002.4 mb 0.00 in0.0 mm 0.00 in0.0 mm 0.00 in0.0 mm
07:50 AM 22.9°F-5.1°C 20.2°F-6.6°C 89% 1.0 mph SW1.6 kmh SW 3.0 mph4.8 kmh 29.59 in1002.0 mb 0.00 in0.0 mm 0.00 in0.0 mm 0.00 in0.0 mm
07:45 AM 22.9°F-5.1°C 20.2°F-6.6°C 89% 1.0 mph SW1.6 kmh SW 3.0 mph4.8 kmh 29.59 in1002.0 mb 0.00 in0.0 mm 0.00 in0.0 mm 0.00 in0.0 mm
07:40 AM 22.9°F-5.1°C 20.2°F-6.6°C 89% 1.0 mph SW1.6 kmh SW 3.0 mph4.8 kmh 29.59 in1002.0 mb 0.00 in0.0 mm 0.00 in0.0 mm 0.00 in0.0 mm
07:35 AM 23.0°F-5.0°C 20.3°F-6.5°C 89% 2.0 mph SW3.2 kmh SW 4.0 mph6.4 kmh 29.59 in1002.0 mb 0.00 in0.0 mm 0.00 in0.0 mm 0.00 in0.0 mm
07:30 AM 23.0°F-5.0°C 20.3°F-6.5°C 89% 2.0 mph WSW3.2 kmh WSW 5.0 mph8.0 kmh 29.60 in1002.4 mb 0.00 in0.0 mm 0.00 in0.0 mm 0.00 in0.0 mm
07:25 AM 23.1°F-4.9°C 20.3°F-6.5°C 89% 2.0 mph WSW3.2 kmh WSW 4.0 mph6.4 kmh 29.59 in1002.0 mb 0.00 in0.0 mm 0.00 in0.0 mm 0.00 in0.0 mm
07:20 AM 23.1°F-4.9°C 20.3°F-6.5°C 89% 2.0 mph WSW3.2 kmh WSW 4.0 mph6.4 kmh 29.59 in1002.0 mb 0.00 in0.0 mm 0.00 in0.0 mm 0.00 in0.0 mm
07:15 AM 23.2°F-4.9°C 20.4°F-6.4°C 89% 2.0 mph WSW3.2 kmh WSW 4.0 mph6.4 kmh 29.59 in1002.0 mb 0.00 in0.0 mm 0.00 in0.0 mm 0.00 in0.0 mm
07:10 AM 23.1°F-4.9°C 20.3°F-6.5°C 89% Calm Calm 2.0 mph3.2 kmh 29.59 in1002.0 mb 0.00 in0.0 mm 0.00 in0.0 mm 0.00 in0.0 mm
07:05 AM 22.9°F-5.1°C 20.2°F-6.6°C 89% 1.0 mph WSW1.6 kmh WSW 2.0 mph3.2 kmh 29.59 in1002.0 mb 0.00 in0.0 mm 0.00 in0.0 mm 0.00 in0.0 mm
07:00 AM 22.8°F-5.1°C 20.1°F-6.6°C 89% 1.0 mph WSW1.6 kmh WSW 2.0 mph3.2 kmh 29.59 in1002.0 mb 0.00 in0.0 mm 0.00 in0.0 mm 0.00 in0.0 mm
06:55 AM 22.8°F-5.1°C 20.1°F-6.6°C 89% 1.0 mph WSW1.6 kmh WSW 3.0 mph4.8 kmh 29.59 in1002.0 mb 0.00 in0.0 mm 0.00 in0.0 mm 0.00 in0.0 mm
06:50 AM 22.7°F-5.2°C 20.0°F-6.7°C 89% Calm Calm 2.0 mph3.2 kmh 29.59 in1002.0 mb 0.00 in0.0 mm 0.00 in0.0 mm 0.00 in0.0 mm
06:45 AM 22.7°F-5.2°C 20.0°F-6.7°C 89% 1.0 mph WSW1.6 kmh WSW 2.0 mph3.2 kmh 29.59 in1002.0 mb 0.00 in0.0 mm 0.00 in0.0 mm 0.00 in0.0 mm
06:40 AM 22.7°F-5.2°C 20.0°F-6.7°C 89% Calm Calm 2.0 mph3.2 kmh 29.59 in1002.0 mb 0.00 in0.0 mm 0.00 in0.0 mm 0.00 in0.0 mm
06:35 AM 22.7°F-5.2°C 20.0°F-6.7°C 89% Calm Calm 2.0 mph3.2 kmh 29.59 in1002.0 mb 0.00 in0.0 mm 0.00 in0.0 mm 0.00 in0.0 mm
06:30 AM 22.7°F-5.2°C 20.0°F-6.7°C 89% 1.0 mph WSW1.6 kmh WSW 3.0 mph4.8 kmh 29.59 in1002.0 mb 0.00 in0.0 mm 0.00 in0.0 mm 0.00 in0.0 mm
06:25 AM 22.6°F-5.2°C 19.9°F-6.7°C 89% 1.0 mph SW1.6 kmh SW 4.0 mph6.4 kmh 29.59 in1002.0 mb 0.00 in0.0 mm 0.00 in0.0 mm 0.00 in0.0 mm
06:20 AM 22.6°F-5.2°C 19.9°F-6.7°C 89% 2.0 mph WSW3.2 kmh WSW 4.0 mph6.4 kmh 29.59 in1002.0 mb 0.00 in0.0 mm 0.00 in0.0 mm 0.00 in0.0 mm
06:15 AM 22.6°F-5.2°C 19.9°F-6.7°C 89% 1.0 mph WSW1.6 kmh WSW 4.0 mph6.4 kmh 29.59 in1002.0 mb 0.00 in0.0 mm 0.00 in0.0 mm 0.00 in0.0 mm
06:10 AM 22.6°F-5.2°C 19.9°F-6.7°C 89% 1.0 mph W1.6 kmh W 3.0 mph4.8 kmh 29.60 in1002.4 mb 0.00 in0.0 mm 0.00 in0.0 mm 0.00 in0.0 mm
06:05 AM 22.6°F-5.2°C 19.9°F-6.7°C 89% 2.0 mph W3.2 kmh W 4.0 mph6.4 kmh 29.60 in1002.4 mb 0.00 in0.0 mm 0.00 in0.0 mm 0.00 in0.0 mm
06:00 AM 22.6°F-5.2°C 19.9°F-6.7°C 89% 2.0 mph NW3.2 kmh NW 4.0 mph6.4 kmh 29.60 in1002.4 mb 0.00 in0.0 mm 0.00 in0.0 mm 0.00 in0.0 mm
05:55 AM 22.6°F-5.2°C 19.9°F-6.7°C 89% 1.0 mph WSW1.6 kmh WSW 5.0 mph8.0 kmh 29.60 in1002.4 mb 0.00 in0.0 mm 0.00 in0.0 mm 0.00 in0.0 mm
05:50 AM 22.6°F-5.2°C 19.9°F-6.7°C 89% 2.0 mph WSW3.2 kmh WSW 4.0 mph6.4 kmh 29.60 in1002.4 mb 0.00 in0.0 mm 0.00 in0.0 mm 0.00 in0.0 mm
05:45 AM 22.7°F-5.2°C 20.0°F-6.7°C 89% 2.0 mph WNW3.2 kmh WNW 4.0 mph6.4 kmh 29.59 in1002.0 mb 0.00 in0.0 mm 0.00 in0.0 mm 0.00 in0.0 mm
05:40 AM 22.7°F-5.2°C 20.0°F-6.7°C 89% 1.0 mph WSW1.6 kmh WSW 3.0 mph4.8 kmh 29.59 in1002.0 mb 0.00 in0.0 mm 0.00 in0.0 mm 0.00 in0.0 mm
05:35 AM 22.7°F-5.2°C 20.0°F-6.7°C 89% 2.0 mph NW3.2 kmh NW 4.0 mph6.4 kmh 29.59 in1002.0 mb 0.00 in0.0 mm 0.00 in0.0 mm 0.00 in0.0 mm
05:30 AM 22.7°F-5.2°C 20.0°F-6.7°C 89% 2.0 mph WNW3.2 kmh WNW 5.0 mph8.0 kmh 29.58 in1001.7 mb 0.00 in0.0 mm 0.00 in0.0 mm 0.00 in0.0 mm
05:25 AM 22.7°F-5.2°C 20.0°F-6.7°C 89% 1.0 mph W1.6 kmh W 4.0 mph6.4 kmh 29.59 in1002.0 mb 0.00 in0.0 mm 0.00 in0.0 mm 0.00 in0.0 mm
05:20 AM 22.7°F-5.2°C 19.7°F-6.8°C 88% 1.0 mph W1.6 kmh W 3.0 mph4.8 kmh 29.58 in1001.7 mb 0.00 in0.0 mm 0.00 in0.0 mm 0.00 in0.0 mm
05:15 AM 22.8°F-5.1°C 19.8°F-6.8°C 88% 2.0 mph W3.2 kmh W 4.0 mph6.4 kmh 29.59 in1002.0 mb 0.00 in0.0 mm 0.00 in0.0 mm 0.00 in0.0 mm
05:10 AM 22.8°F-5.1°C 19.8°F-6.8°C 88% 1.0 mph W1.6 kmh W 3.0 mph4.8 kmh 29.59 in1002.0 mb 0.00 in0.0 mm 0.00 in0.0 mm 0.00 in0.0 mm
05:05 AM 22.9°F-5.1°C 19.9°F-6.7°C 88% 2.0 mph W3.2 kmh W 3.0 mph4.8 kmh 29.59 in1002.0 mb 0.00 in0.0 mm 0.00 in0.0 mm 0.00 in0.0 mm
05:00 AM 23.0°F-5.0°C 20.0°F-6.7°C 88% 2.0 mph WSW3.2 kmh WSW 4.0 mph6.4 kmh 29.59 in1002.0 mb 0.00 in0.0 mm 0.00 in0.0 mm 0.00 in0.0 mm
04:55 AM 23.1°F-4.9°C 20.1°F-6.6°C 88% 2.0 mph W3.2 kmh W 5.0 mph8.0 kmh 29.59 in1002.0 mb 0.00 in0.0 mm 0.00 in0.0 mm 0.00 in0.0 mm
04:50 AM 23.1°F-4.9°C 20.1°F-6.6°C 88% 2.0 mph WNW3.2 kmh WNW 5.0 mph8.0 kmh 29.59 in1002.0 mb 0.00 in0.0 mm 0.00 in0.0 mm 0.00 in0.0 mm
04:45 AM 23.2°F-4.9°C 20.2°F-6.6°C 88% 2.0 mph NW3.2 kmh NW 5.0 mph8.0 kmh 29.60 in1002.4 mb 0.00 in0.0 mm 0.00 in0.0 mm 0.00 in0.0 mm
04:40 AM 23.3°F-4.8°C 20.3°F-6.5°C 88% 2.0 mph WNW3.2 kmh WNW 5.0 mph8.0 kmh 29.60 in1002.4 mb 0.00 in0.0 mm 0.00 in0.0 mm 0.00 in0.0 mm
04:35 AM 23.3°F-4.8°C 20.3°F-6.5°C 88% 1.0 mph WNW1.6 kmh WNW 5.0 mph8.0 kmh 29.60 in1002.4 mb 0.00 in0.0 mm 0.00 in0.0 mm 0.00 in0.0 mm
04:30 AM 23.3°F-4.8°C 20.3°F-6.5°C 88% 1.0 mph WNW1.6 kmh WNW 4.0 mph6.4 kmh 29.60 in1002.4 mb 0.00 in0.0 mm 0.00 in0.0 mm 0.00 in0.0 mm
04:25 AM 23.4°F-4.8°C 20.4°F-6.4°C 88% 3.0 mph WNW4.8 kmh WNW 7.0 mph11.3 kmh 29.60 in1002.4 mb 0.00 in0.0 mm 0.00 in0.0 mm 0.00 in0.0 mm
04:20 AM 23.4°F-4.8°C 20.4°F-6.4°C 88% 2.0 mph NW3.2 kmh NW 5.0 mph8.0 kmh 29.60 in1002.4 mb 0.00 in0.0 mm 0.00 in0.0 mm 0.00 in0.0 mm
04:15 AM 23.5°F-4.7°C 20.5°F-6.4°C 88% 2.0 mph W3.2 kmh W 4.0 mph6.4 kmh 29.61 in1002.7 mb 0.00 in0.0 mm 0.00 in0.0 mm 0.00 in0.0 mm
04:10 AM 23.5°F-4.7°C 20.5°F-6.4°C 88% 1.0 mph WSW1.6 kmh WSW 4.0 mph6.4 kmh 29.60 in1002.4 mb 0.00 in0.0 mm 0.00 in0.0 mm 0.00 in0.0 mm
04:05 AM 23.6°F-4.7°C 20.6°F-6.3°C 88% 1.0 mph WNW1.6 kmh WNW 3.0 mph4.8 kmh 29.60 in1002.4 mb 0.00 in0.0 mm 0.00 in0.0 mm 0.00 in0.0 mm
04:00 AM 23.6°F-4.7°C 20.6°F-6.3°C 88% 1.0 mph WNW1.6 kmh WNW 5.0 mph8.0 kmh 29.60 in1002.4 mb 0.00 in0.0 mm 0.00 in0.0 mm 0.00 in0.0 mm
03:55 AM 23.6°F-4.7°C 20.6°F-6.3°C 88% 1.0 mph WNW1.6 kmh WNW 4.0 mph6.4 kmh 29.60 in1002.4 mb 0.00 in0.0 mm 0.00 in0.0 mm 0.00 in0.0 mm
03:50 AM 23.7°F-4.6°C 20.7°F-6.3°C 88% 2.0 mph WNW3.2 kmh WNW 5.0 mph8.0 kmh 29.61 in1002.7 mb 0.00 in0.0 mm 0.00 in0.0 mm 0.00 in0.0 mm
03:45 AM 23.8°F-4.6°C 20.8°F-6.2°C 88% 1.0 mph W1.6 kmh W 4.0 mph6.4 kmh 29.61 in1002.7 mb 0.00 in0.0 mm 0.00 in0.0 mm 0.00 in0.0 mm
03:40 AM 23.8°F-4.6°C 20.8°F-6.2°C 88% 1.0 mph WNW1.6 kmh WNW 4.0 mph6.4 kmh 29.61 in1002.7 mb 0.00 in0.0 mm 0.00 in0.0 mm 0.00 in0.0 mm
03:35 AM 23.8°F-4.6°C 20.8°F-6.2°C 88% 1.0 mph WNW1.6 kmh WNW 4.0 mph6.4 kmh 29.61 in1002.7 mb 0.00 in0.0 mm 0.00 in0.0 mm 0.00 in0.0 mm
03:30 AM 23.8°F-4.6°C 20.8°F-6.2°C 88% 2.0 mph W3.2 kmh W 5.0 mph8.0 kmh 29.61 in1002.7 mb 0.00 in0.0 mm 0.00 in0.0 mm 0.00 in0.0 mm
03:25 AM 23.9°F-4.5°C 20.9°F-6.2°C 88% 2.0 mph WSW3.2 kmh WSW 8.0 mph12.9 kmh 29.62 in1003.0 mb 0.00 in0.0 mm 0.00 in0.0 mm 0.00 in0.0 mm
03:20 AM 24.0°F-4.4°C 21.0°F-6.1°C 88% 2.0 mph WSW3.2 kmh WSW 6.0 mph9.7 kmh 29.62 in1003.0 mb 0.00 in0.0 mm 0.00 in0.0 mm 0.00 in0.0 mm
03:15 AM 24.0°F-4.4°C 20.7°F-6.3°C 87% 2.0 mph W3.2 kmh W 5.0 mph8.0 kmh 29.61 in1002.7 mb 0.00 in0.0 mm 0.00 in0.0 mm 0.00 in0.0 mm
03:10 AM 24.2°F-4.3°C 20.9°F-6.2°C 87% 3.0 mph WNW4.8 kmh WNW 5.0 mph8.0 kmh 29.62 in1003.0 mb 0.00 in0.0 mm 0.00 in0.0 mm 0.00 in0.0 mm
03:05 AM 24.2°F-4.3°C 20.9°F-6.2°C 87% 2.0 mph WNW3.2 kmh WNW 5.0 mph8.0 kmh 29.62 in1003.0 mb 0.00 in0.0 mm 0.00 in0.0 mm 0.00 in0.0 mm
03:00 AM 24.3°F-4.3°C 21.0°F-6.1°C 87% 1.0 mph WSW1.6 kmh WSW 5.0 mph8.0 kmh 29.62 in1003.0 mb 0.00 in0.0 mm 0.00 in0.0 mm 0.00 in0.0 mm
02:55 AM 24.4°F-4.2°C 21.1°F-6.1°C 87% 1.0 mph WSW1.6 kmh WSW 5.0 mph8.0 kmh 29.62 in1003.0 mb 0.00 in0.0 mm 0.00 in0.0 mm 0.00 in0.0 mm
02:50 AM 24.6°F-4.1°C 21.3°F-5.9°C 87% 2.0 mph WSW3.2 kmh WSW 4.0 mph6.4 kmh 29.63 in1003.4 mb 0.00 in0.0 mm 0.00 in0.0 mm 0.00 in0.0 mm
02:45 AM 24.8°F-4.0°C 21.5°F-5.8°C 87% 2.0 mph WSW3.2 kmh WSW 4.0 mph6.4 kmh 29.63 in1003.4 mb 0.00 in0.0 mm 0.00 in0.0 mm 0.00 in0.0 mm
02:40 AM 24.9°F-3.9°C 21.6°F-5.8°C 87% 1.0 mph WNW1.6 kmh WNW 5.0 mph8.0 kmh 29.63 in1003.4 mb 0.00 in0.0 mm 0.00 in0.0 mm 0.00 in0.0 mm
02:35 AM 25.1°F-3.8°C 21.8°F-5.7°C 87% 1.0 mph WNW1.6 kmh WNW 4.0 mph6.4 kmh 29.63 in1003.4 mb 0.00 in0.0 mm 0.00 in0.0 mm 0.00 in0.0 mm
02:30 AM 25.2°F-3.8°C 21.9°F-5.6°C 87% 1.0 mph WNW1.6 kmh WNW 4.0 mph6.4 kmh 29.63 in1003.4 mb 0.00 in0.0 mm 0.00 in0.0 mm 0.00 in0.0 mm
02:25 AM 25.3°F-3.7°C 22.0°F-5.6°C 87% 1.0 mph W1.6 kmh W 3.0 mph4.8 kmh 29.63 in1003.4 mb 0.00 in0.0 mm 0.00 in0.0 mm 0.00 in0.0 mm
02:20 AM 25.6°F-3.6°C 22.3°F-5.4°C 87% 1.0 mph WSW1.6 kmh WSW 2.0 mph3.2 kmh 29.63 in1003.4 mb 0.00 in0.0 mm 0.00 in0.0 mm 0.00 in0.0 mm
02:15 AM 25.8°F-3.4°C 22.5°F-5.3°C 87% 1.0 mph W1.6 kmh W 3.0 mph4.8 kmh 29.64 in1003.7 mb 0.00 in0.0 mm 0.00 in0.0 mm 0.00 in0.0 mm
02:10 AM 26.1°F-3.3°C 22.8°F-5.1°C 87% 1.0 mph W1.6 kmh W 3.0 mph4.8 kmh 29.64 in1003.7 mb 0.00 in0.0 mm 0.00 in0.0 mm 0.00 in0.0 mm
02:05 AM 26.3°F-3.2°C 23.2°F-4.9°C 88% 1.0 mph W1.6 kmh W 3.0 mph4.8 kmh 29.65 in1004.1 mb 0.00 in0.0 mm 0.00 in0.0 mm 0.00 in0.0 mm
02:00 AM 26.6°F-3.0°C 23.5°F-4.7°C 88% 2.0 mph W3.2 kmh W 5.0 mph8.0 kmh 29.65 in1004.1 mb 0.00 in0.0 mm 0.00 in0.0 mm 0.00 in0.0 mm
01:55 AM 27.0°F-2.8°C 23.9°F-4.5°C 88% 2.0 mph WSW3.2 kmh WSW 6.0 mph9.7 kmh 29.66 in1004.4 mb 0.00 in0.0 mm 0.00 in0.0 mm 0.00 in0.0 mm
01:50 AM 27.2°F-2.7°C 24.1°F-4.4°C 88% 3.0 mph W4.8 kmh W 7.0 mph11.3 kmh 29.66 in1004.4 mb 0.00 in0.0 mm 0.00 in0.0 mm 0.00 in0.0 mm
01:45 AM 27.5°F-2.5°C 24.4°F-4.2°C 88% 2.0 mph WNW3.2 kmh WNW 6.0 mph9.7 kmh 29.66 in1004.4 mb 0.00 in0.0 mm 0.00 in0.0 mm 0.00 in0.0 mm
01:40 AM 27.6°F-2.4°C 24.5°F-4.2°C 88% 4.0 mph WNW6.4 kmh WNW 8.0 mph12.9 kmh 29.66 in1004.4 mb 0.00 in0.0 mm 0.00 in0.0 mm 0.00 in0.0 mm
01:35 AM 27.7°F-2.4°C 24.6°F-4.1°C 88% 2.0 mph WSW3.2 kmh WSW 6.0 mph9.7 kmh 29.66 in1004.4 mb 0.00 in0.0 mm 0.00 in0.0 mm 0.00 in0.0 mm
01:30 AM 27.7°F-2.4°C 24.6°F-4.1°C 88% 2.0 mph W3.2 kmh W 4.0 mph6.4 kmh 29.67 in1004.7 mb 0.00 in0.0 mm 0.00 in0.0 mm 0.00 in0.0 mm
01:25 AM 27.7°F-2.4°C 24.6°F-4.1°C 88% 1.0 mph W1.6 kmh W 4.0 mph6.4 kmh 29.67 in1004.7 mb 0.00 in0.0 mm 0.00 in0.0 mm 0.00 in0.0 mm
01:20 AM 27.7°F-2.4°C 24.6°F-4.1°C 88% 1.0 mph W1.6 kmh W 4.0 mph6.4 kmh 29.67 in1004.7 mb 0.00 in0.0 mm 0.00 in0.0 mm 0.00 in0.0 mm
01:15 AM 27.7°F-2.4°C 24.6°F-4.1°C 88% 2.0 mph WNW3.2 kmh WNW 4.0 mph6.4 kmh 29.67 in1004.7 mb 0.00 in0.0 mm 0.00 in0.0 mm 0.00 in0.0 mm
01:10 AM 27.6°F-2.4°C 24.5°F-4.2°C 88% Calm Calm 3.0 mph4.8 kmh 29.67 in1004.7 mb 0.00 in0.0 mm 0.00 in0.0 mm 0.00 in0.0 mm
01:05 AM 27.6°F-2.4°C 24.5°F-4.2°C 88% 1.0 mph WNW1.6 kmh WNW 4.0 mph6.4 kmh 29.67 in1004.7 mb 0.00 in0.0 mm 0.00 in0.0 mm 0.00 in0.0 mm
01:00 AM 27.6°F-2.4°C 24.5°F-4.2°C 88% Calm Calm 1.0 mph1.6 kmh 29.67 in1004.7 mb 0.00 in0.0 mm 0.00 in0.0 mm 0.00 in0.0 mm
12:55 AM 27.6°F-2.4°C 24.5°F-4.2°C 88% Calm Calm 2.0 mph3.2 kmh 29.68 in1005.1 mb 0.00 in0.0 mm 0.00 in0.0 mm 0.00 in0.0 mm
12:50 AM 27.6°F-2.4°C 24.5°F-4.2°C 88% 1.0 mph WNW1.6 kmh WNW 4.0 mph6.4 kmh 29.68 in1005.1 mb 0.00 in0.0 mm 0.00 in0.0 mm 0.00 in0.0 mm
12:45 AM 27.5°F-2.5°C 24.4°F-4.2°C 88% Calm Calm 3.0 mph4.8 kmh 29.69 in1005.4 mb 0.00 in0.0 mm 0.00 in0.0 mm 0.00 in0.0 mm
12:40 AM 27.5°F-2.5°C 24.4°F-4.2°C 88% Calm Calm 2.0 mph3.2 kmh 29.69 in1005.4 mb 0.00 in0.0 mm 0.00 in0.0 mm 0.00 in0.0 mm
12:35 AM 27.5°F-2.5°C 24.4°F-4.2°C 88% Calm Calm 2.0 mph3.2 kmh 29.69 in1005.4 mb 0.00 in0.0 mm 0.00 in0.0 mm 0.00 in0.0 mm
12:30 AM 27.5°F-2.5°C 24.4°F-4.2°C 88% 1.0 mph W1.6 kmh W 3.0 mph4.8 kmh 29.70 in1005.8 mb 0.00 in0.0 mm 0.00 in0.0 mm 0.00 in0.0 mm
12:25 AM 27.5°F-2.5°C 24.4°F-4.2°C 88% Calm Calm 1.0 mph1.6 kmh 29.70 in1005.8 mb 0.00 in0.0 mm 0.00 in0.0 mm 0.00 in0.0 mm
12:20 AM 27.5°F-2.5°C 24.4°F-4.2°C 88% Calm Calm 3.0 mph4.8 kmh 29.71 in1006.1 mb 0.00 in0.0 mm 0.00 in0.0 mm 0.00 in0.0 mm
12:15 AM 27.6°F-2.4°C 24.5°F-4.2°C 88% Calm Calm 3.0 mph4.8 kmh 29.72 in1006.4 mb 0.00 in0.0 mm 0.00 in0.0 mm 0.00 in0.0 mm
12:10 AM 27.6°F-2.4°C 24.5°F-4.2°C 88% Calm Calm 1.0 mph1.6 kmh 29.72 in1006.4 mb 0.00 in0.0 mm 0.00 in0.0 mm 0.00 in0.0 mm
12:05 AM 27.6°F-2.4°C 24.5°F-4.2°C 88% Calm Calm 2.0 mph3.2 kmh 29.73 in1006.8 mb 0.00 in0.0 mm 0.00 in0.0 mm 0.00 in0.0 mm
12:00 AM 27.7°F-2.4°C 24.6°F-4.1°C 88% Calm Calm 2.0 mph3.2 kmh 29.74 in1007.1 mb 0.00 in0.0 mm 0.00 in0.0 mm 0.00 in0.0 mm